Time;durP1;ratioP1;P1;durP2;ratioP2;P2;SDS_P1;SDS_P2;PMS_P1;PMS_P2;Temp;Humidity;BMP_temperature;BMP_pressure;BME280_temperature;BME280_humidity;BME280_pressure;Samples;Min_cycle;Max_cycle;Signal;HPM_P1;HPM_P2
2023/05/30 00:02:19;;;;;;;13.60;12.32;;;23.80;68.10;;;;;;4803257;54;21462;-31
2023/05/30 00:07:20;;;;;;;13.98;12.68;;;23.80;68.10;;;;;;4839293;54;21067;-32
2023/05/30 00:12:21;;;;;;;14.27;12.88;;;23.80;68.00;;;;;;4796386;58;21644;-34
2023/05/30 00:17:22;;;;;;;14.27;12.98;;;23.80;68.00;;;;;;4931098;54;21103;-33
2023/05/30 00:22:23;;;;;;;13.40;12.10;;;23.80;68.00;;;;;;4922905;54;21549;-34
2023/05/30 00:27:24;;;;;;;13.62;12.43;;;23.80;68.00;;;;;;4854860;54;20987;-35
2023/05/30 00:32:25;;;;;;;13.30;12.07;;;23.80;68.00;;;;;;4881909;54;21521;-33
2023/05/30 00:37:26;;;;;;;13.93;12.63;;;23.80;68.00;;;;;;4854427;54;21593;-34
2023/05/30 00:42:27;;;;;;;13.23;11.93;;;23.80;68.00;;;;;;4933497;54;21028;-35
2023/05/30 00:47:28;;;;;;;13.25;12.15;;;23.80;68.10;;;;;;4825897;54;21625;-34
2023/05/30 00:52:29;;;;;;;12.95;11.75;;;23.80;68.00;;;;;;4829618;54;21071;-35
2023/05/30 00:57:40;;;;;;;13.23;11.93;;;23.80;68.00;;;;;;4825966;54;21066;-37
2023/05/30 01:02:44;;;;;;;13.35;12.13;;;23.80;68.00;;;;;;4796328;58;21036;-36
2023/05/30 01:07:45;;;;;;;12.80;11.60;;;23.80;68.00;;;;;;4859289;54;21466;-35
2023/05/30 01:14:35;;;;;;;12.85;11.55;;;23.80;68.10;;;;;;4824639;54;21483;-32
2023/05/30 01:20:07;;;;;;;13.02;11.82;;;23.80;68.00;;;;;;4820992;54;21071;-35
2023/05/30 01:26:48;;;;;;;12.98;11.77;;;23.80;68.00;;;;;;4867006;54;21478;-33
2023/05/30 01:31:49;;;;;;;12.37;11.18;;;23.80;67.90;;;;;;5037871;54;21510;-31
2023/05/30 01:36:50;;;;;;;12.80;11.65;;;23.80;68.00;;;;;;4832295;54;21131;-35
2023/05/30 01:42:36;;;;;;;12.00;10.93;;;23.80;68.10;;;;;;4845368;54;21529;-32
2023/05/30 01:47:49;;;;;;;12.30;11.20;;;23.80;68.00;;;;;;4963393;54;21588;-32
2023/05/30 01:52:54;;;;;;;12.68;11.50;;;23.80;68.00;;;;;;4803694;54;22023;-34
2023/05/30 01:57:57;;;;;;;11.98;10.88;;;23.80;68.00;;;;;;4795989;58;21526;-33
2023/05/30 02:02:58;;;;;;;12.52;11.43;;;23.80;68.00;;;;;;4823405;54;22489;-33
2023/05/30 02:07:59;;;;;;;12.07;10.98;;;23.80;68.00;;;;;;4813694;54;21020;-36
2023/05/30 02:13:00;;;;;;;13.05;11.85;;;23.80;68.00;;;;;;4804769;54;21470;-34
2023/05/30 02:18:02;;;;;;;12.23;11.05;;;23.80;68.00;;;;;;4795930;54;21032;-34
2023/05/30 02:23:03;;;;;;;11.77;10.68;;;23.80;68.00;;;;;;4832244;54;21107;-34
2023/05/30 02:28:04;;;;;;;12.13;10.95;;;23.80;68.10;;;;;;4873058;54;21000;-35
2023/05/30 02:33:08;;;;;;;11.98;10.90;;;23.80;67.90;;;;;;4815950;54;21023;-32
2023/05/30 02:38:08;;;;;;;11.10;10.10;;;23.80;68.00;;;;;;4809301;54;21095;-34
2023/05/30 02:43:10;;;;;;;12.15;11.05;;;23.80;68.60;;;;;;4832662;54;21470;-34
2023/05/30 02:48:11;;;;;;;11.95;10.95;;;23.80;68.00;;;;;;4849024;54;21019;-36
2023/05/30 02:53:12;;;;;;;11.18;10.15;;;23.80;67.90;;;;;;4922673;54;21091;-33
2023/05/30 02:58:13;;;;;;;10.77;9.77;;;23.80;68.00;;;;;;4796328;58;21131;-35
2023/05/30 03:03:14;;;;;;;12.37;11.18;;;23.80;67.90;;;;;;4890743;54;21533;-35
2023/05/30 03:08:15;;;;;;;10.68;9.68;;;23.80;67.90;;;;;;4804475;54;21068;-32
2023/05/30 03:13:16;;;;;;;11.70;10.55;;;23.80;68.00;;;;;;4799333;54;21059;-34
2023/05/30 03:18:17;;;;;;;10.80;9.82;;;23.80;67.90;;;;;;4824066;54;21473;-33
2023/05/30 03:23:18;;;;;;;11.43;10.40;;;23.80;67.90;;;;;;4796299;58;21151;-31
2023/05/30 03:28:18;;;;;;;10.93;9.93;;;23.80;67.90;;;;;;4854043;54;21115;-35
2023/05/30 03:33:19;;;;;;;10.82;9.82;;;23.80;68.00;;;;;;4982978;54;21103;-33
2023/05/30 03:38:21;;;;;;;11.45;10.45;;;23.80;67.90;;;;;;4858282;54;21593;-35
2023/05/30 03:43:22;;;;;;;10.68;9.70;;;23.80;67.90;;;;;;4904657;54;21549;-33
2023/05/30 03:48:23;;;;;;;10.32;9.38;;;23.80;67.90;;;;;;4806638;54;21008;-32
2023/05/30 03:53:24;;;;;;;10.15;9.15;;;23.80;67.90;;;;;;4802461;54;21529;-32
2023/05/30 03:58:24;;;;;;;10.43;9.52;;;23.80;67.90;;;;;;4827417;54;21007;-35
2023/05/30 04:03:25;;;;;;;10.57;9.52;;;23.80;67.90;;;;;;4796488;58;21541;-33
2023/05/30 04:08:26;;;;;;;10.02;9.13;;;23.80;67.90;;;;;;4796607;58;21561;-32
2023/05/30 04:13:27;;;;;;;9.85;8.93;;;23.80;67.90;;;;;;4835826;54;21004;-35
2023/05/30 04:18:28;;;;;;;10.68;9.68;;;23.80;67.90;;;;;;4819208;54;21011;-32
2023/05/30 04:23:29;;;;;;;10.95;9.95;;;23.80;67.80;;;;;;4822032;54;21015;-34
2023/05/30 04:28:30;;;;;;;10.18;9.18;;;23.80;67.80;;;;;;4803234;54;21565;-33
2023/05/30 04:33:34;;;;;;;10.00;9.10;;;23.80;67.70;;;;;;4828607;54;21533;-32
2023/05/30 04:38:37;;;;;;;10.00;9.10;;;23.70;67.60;;;;;;4823264;54;22084;-35
2023/05/30 04:43:41;;;;;;;9.45;8.65;;;23.80;67.60;;;;;;4819479;54;21484;-32
2023/05/30 04:48:42;;;;;;;10.07;9.07;;;23.70;67.50;;;;;;4817367;54;21091;-35
2023/05/30 04:53:43;;;;;;;10.07;9.07;;;23.70;67.50;;;;;;4814071;54;21523;-34
2023/05/30 04:58:48;;;;;;;10.32;9.32;;;23.70;67.60;;;;;;4814221;54;21124;-33
2023/05/30 05:03:49;;;;;;;10.10;9.20;;;23.70;67.50;;;;;;4863669;54;21538;-34
2023/05/30 05:08:49;;;;;;;9.75;8.95;;;23.70;67.50;;;;;;4831345;54;21079;-36
2023/05/30 05:13:50;;;;;;;9.85;8.95;;;23.70;67.50;;;;;;4796414;58;21079;-36
2023/05/30 05:18:51;;;;;;;9.52;8.68;;;23.70;67.50;;;;;;4817253;54;21014;-33
2023/05/30 05:23:52;;;;;;;9.65;8.75;;;23.70;67.30;;;;;;4796529;58;21561;-36
2023/05/30 05:28:53;;;;;;;9.75;8.85;;;23.70;67.30;;;;;;4875341;54;21031;-33
2023/05/30 05:33:54;;;;;;;9.95;8.98;;;23.70;67.30;;;;;;4888785;54;21035;-32
2023/05/30 05:38:54;;;;;;;9.50;8.60;;;23.70;67.30;;;;;;4832733;54;21051;-34
2023/05/30 05:43:55;;;;;;;10.18;9.18;;;23.70;67.30;;;;;;4878432;54;21035;-35
2023/05/30 05:48:56;;;;;;;10.27;9.27;;;23.70;67.20;;;;;;4796088;58;21332;-33
2023/05/30 05:53:57;;;;;;;10.02;9.02;;;23.70;67.20;;;;;;4796254;58;21944;-34
2023/05/30 05:58:58;;;;;;;9.80;8.80;;;23.70;67.20;;;;;;4841948;54;20987;-35
2023/05/30 06:04:01;;;;;;;10.25;9.27;;;23.70;67.20;;;;;;4796415;58;21604;-33
2023/05/30 06:09:02;;;;;;;10.52;9.52;;;23.70;67.20;;;;;;4853667;54;21553;-35
2023/05/30 06:14:04;;;;;;;9.38;8.50;;;23.70;67.10;;;;;;4794838;58;20984;-34
2023/05/30 06:19:05;;;;;;;9.95;8.95;;;23.70;67.20;;;;;;4862340;54;20996;-33
2023/05/30 06:24:06;;;;;;;9.95;8.90;;;23.70;67.10;;;;;;4815543;54;21506;-34
2023/05/30 06:29:07;;;;;;;10.45;9.45;;;23.70;67.10;;;;;;4795720;58;20996;-37
2023/05/30 06:34:08;;;;;;;9.68;8.80;;;23.70;67.20;;;;;;4862199;54;20984;-30
2023/05/30 06:39:15;;;;;;;10.43;9.43;;;23.70;67.10;;;;;;4823697;54;21067;-35
2023/05/30 06:44:15;;;;;;;10.50;9.50;;;23.70;67.10;;;;;;4797520;54;22380;-37
2023/05/30 06:49:16;;;;;;;10.75;9.70;;;23.70;67.10;;;;;;4825800;54;21127;-33
2023/05/30 06:54:17;;;;;;;11.80;10.60;;;23.80;67.10;;;;;;4826045;54;21470;-29
2023/05/30 06:59:19;;;;;;;12.13;10.43;;;23.70;67.10;;;;;;4820259;54;22042;-29
2023/05/30 07:04:20;;;;;;;14.60;9.90;;;23.80;66.90;;;;;;4799985;54;22287;-34
2023/05/30 07:09:20;;;;;;;11.50;10.27;;;23.90;67.00;;;;;;4811485;54;20999;-36
2023/05/30 07:14:21;;;;;;;13.45;10.48;;;23.90;66.90;;;;;;4827717;54;21075;-34
2023/05/30 07:19:23;;;;;;;12.27;10.48;;;23.90;66.90;;;;;;4794952;54;21561;-33
2023/05/30 07:24:24;;;;;;;16.58;10.60;;;24.00;67.00;;;;;;4800691;54;21000;-34
2023/05/30 07:29:26;;;;;;;16.65;12.00;;;24.10;67.10;;;;;;4880761;54;21118;-32
2023/05/30 07:34:26;;;;;;;19.83;12.63;;;24.10;67.10;;;;;;4834150;54;21549;-33
2023/05/30 07:39:27;;;;;;;17.83;12.43;;;24.10;67.70;;;;;;4796698;54;21047;-29
2023/05/30 07:44:28;;;;;;;18.67;13.43;;;24.10;67.20;;;;;;4798349;54;21060;-34
2023/05/30 07:49:29;;;;;;;19.52;14.15;;;24.10;67.20;;;;;;4849284;54;21110;-32
2023/05/30 07:54:30;;;;;;;21.77;14.27;;;24.20;67.30;;;;;;4813249;54;21003;-32
2023/05/30 07:59:31;;;;;;;24.10;15.88;;;24.20;67.30;;;;;;4848069;54;21534;-33
2023/05/30 08:04:32;;;;;;;26.85;15.55;;;24.20;67.40;;;;;;4801240;54;21130;-35
2023/05/30 08:09:33;;;;;;;23.42;16.40;;;24.20;67.40;;;;;;4801289;54;21114;-34
2023/05/30 08:14:34;;;;;;;26.85;17.95;;;24.20;67.40;;;;;;4795433;54;21000;-35
2023/05/30 08:19:35;;;;;;;27.73;18.70;;;24.20;67.50;;;;;;4808807;54;21078;-33
2023/05/30 08:24:36;;;;;;;30.02;19.50;;;24.20;67.50;;;;;;4824540;54;21051;-34
2023/05/30 08:29:38;;;;;;;25.62;18.30;;;24.10;67.50;;;;;;4817031;54;21547;-35
2023/05/30 08:34:39;;;;;;;28.55;18.92;;;24.10;67.60;;;;;;4797647;54;21059;-33
2023/05/30 08:39:40;;;;;;;27.75;20.27;;;24.10;67.60;;;;;;4793451;58;21092;-32
2023/05/30 08:44:41;;;;;;;28.90;17.83;;;24.10;67.60;;;;;;4794295;58;21528;-32
2023/05/30 08:49:45;;;;;;;26.90;19.23;;;24.10;67.60;;;;;;4794517;58;21036;-34
2023/05/30 08:54:59;;;;;;;29.98;19.85;;;24.10;67.60;;;;;;4822619;54;21537;-35
2023/05/30 09:00:02;;;;;;;28.87;20.35;;;24.10;67.50;;;;;;4806426;54;21016;-35
2023/05/30 09:05:04;;;;;;;31.48;19.70;;;24.00;67.50;;;;;;4795147;58;21532;-34
2023/05/30 09:10:07;;;;;;;38.60;25.00;;;24.10;67.00;;;;;;4794776;54;21056;-34
2023/05/30 09:15:08;;;;;;;38.28;24.45;;;24.10;67.30;;;;;;4805190;54;21321;-32
2023/05/30 09:20:15;;;;;;;36.90;24.50;;;24.10;67.30;;;;;;4811278;54;20992;-34
2023/05/30 09:25:16;;;;;;;38.25;23.48;;;24.10;67.40;;;;;;4809550;54;21521;-34
2023/05/30 09:30:21;;;;;;;40.58;25.17;;;24.10;67.50;;;;;;4807961;54;21000;-34
2023/05/30 09:35:25;;;;;;;37.15;25.15;;;24.10;67.50;;;;;;4792698;58;21106;-35
2023/05/30 09:40:26;;;;;;;40.40;25.55;;;24.10;67.40;;;;;;4823545;54;21546;-35
2023/05/30 09:45:27;;;;;;;41.53;25.85;;;24.10;67.50;;;;;;4796313;54;21067;-32
2023/05/30 09:50:28;;;;;;;40.00;25.77;;;24.10;67.50;;;;;;4794047;55;21556;-34
2023/05/30 09:55:29;;;;;;;38.22;25.50;;;24.10;67.60;;;;;;4816940;54;21022;-35
2023/05/30 10:00:31;;;;;;;40.63;26.20;;;24.10;67.60;;;;;;4793046;55;21015;-32
2023/05/30 10:05:37;;;;;;;40.22;26.00;;;24.10;67.50;;;;;;4793298;58;21593;-37
2023/05/30 10:10:41;;;;;;;39.25;25.75;;;24.10;67.50;;;;;;4824255;54;22549;-36
2023/05/30 10:15:42;;;;;;;40.83;26.00;;;24.10;67.50;;;;;;4793960;58;21011;-34
2023/05/30 10:20:45;;;;;;;35.85;25.62;;;24.10;67.50;;;;;;4799259;54;21549;-34
2023/05/30 10:25:50;;;;;;;37.97;24.90;;;24.10;67.50;;;;;;4873603;54;21533;-32
2023/05/30 10:30:53;;;;;;;38.40;24.70;;;24.10;68.00;;;;;;4794134;58;21094;-33
2023/05/30 10:35:54;;;;;;;33.17;23.92;;;24.20;67.40;;;;;;4831049;54;21024;-32
2023/05/30 10:41:11;;;;;;;34.63;23.83;;;24.20;67.50;;;;;;4795273;55;21029;-31
2023/05/30 10:46:26;;;;;;;34.10;23.23;;;24.20;67.70;;;;;;4797305;54;20988;-36
2023/05/30 10:51:27;;;;;;;37.53;25.50;;;24.20;67.80;;;;;;4842269;54;21006;-32
2023/05/30 10:56:49;;;;;;;35.97;25.12;;;24.30;67.90;;;;;;4795281;55;21521;-32
2023/05/30 11:02:51;;;;;;;35.53;24.42;;;24.30;68.20;;;;;;4819836;54;21502;-34
2023/05/30 11:07:52;;;;;;;35.00;24.42;;;24.30;68.10;;;;;;4800626;54;21617;-35
2023/05/30 11:13:09;;;;;;;36.55;25.88;;;24.40;68.30;;;;;;4796222;54;21056;-34
2023/05/30 11:18:18;;;;;;;33.50;24.80;;;24.40;68.40;;;;;;4815127;54;21692;-34
2023/05/30 11:23:20;;;;;;;36.42;24.58;;;24.40;68.30;;;;;;4821219;54;21031;-31
2023/05/30 11:28:40;;;;;;;35.08;24.02;;;24.40;68.40;;;;;;4808590;54;21466;-36
2023/05/30 11:33:44;;;;;;;33.95;24.05;;;24.40;68.60;;;;;;4794687;55;21521;-34
2023/05/30 11:38:46;;;;;;;34.97;24.73;;;24.40;68.60;;;;;;4841728;54;21489;-31
2023/05/30 11:43:51;;;;;;;34.80;22.98;;;24.40;68.80;;;;;;4823821;54;22155;-34
2023/05/30 11:48:57;;;;;;;30.30;23.05;;;24.40;68.90;;;;;;4808841;54;21494;-34
2023/05/30 11:54:03;;;;;;;33.53;22.90;;;24.40;69.10;;;;;;4794845;58;21574;-33
2023/05/30 11:59:07;;;;;;;32.85;23.42;;;24.40;69.20;;;;;;4794142;58;21155;-32
2023/05/30 12:04:08;;;;;;;33.75;24.33;;;24.40;69.20;;;;;;4814525;54;21052;-35
2023/05/30 12:09:11;;;;;;;34.15;23.30;;;24.40;69.30;;;;;;4795002;55;21000;-34
2023/05/30 12:14:12;;;;;;;35.05;25.05;;;24.40;69.40;;;;;;4817558;54;22351;-35
2023/05/30 12:19:13;;;;;;;33.83;23.38;;;24.40;69.60;;;;;;4811376;54;21070;-33
2023/05/30 12:24:14;;;;;;;32.95;23.23;;;24.50;69.70;;;;;;4800632;54;21562;-33
2023/05/30 12:29:15;;;;;;;35.25;25.02;;;24.40;69.70;;;;;;4904292;54;20980;-33
2023/05/30 12:34:16;;;;;;;32.05;23.70;;;24.40;70.00;;;;;;4795203;55;21490;-36
2023/05/30 12:39:17;;;;;;;32.58;24.52;;;24.30;70.00;;;;;;4799319;54;21137;-32
2023/05/30 12:44:19;;;;;;;36.17;25.83;;;24.20;70.10;;;;;;4798150;54;21477;-35
2023/05/30 12:49:20;;;;;;;32.42;23.17;;;24.30;70.20;;;;;;4802309;54;21137;-35
2023/05/30 12:54:25;;;;;;;31.90;24.20;;;24.20;70.10;;;;;;4816752;54;21086;-34
2023/05/30 12:59:26;;;;;;;31.55;25.42;;;24.20;70.10;;;;;;4821991;54;21008;-35
2023/05/30 13:04:30;;;;;;;33.70;25.73;;;24.20;70.10;;;;;;4902149;54;21015;-35
2023/05/30 13:09:31;;;;;;;30.92;23.02;;;24.20;70.00;;;;;;4796435;54;21079;-33
2023/05/30 13:14:32;;;;;;;31.92;24.23;;;24.20;70.00;;;;;;4811206;54;21031;-33
2023/05/30 13:19:33;;;;;;;35.38;25.48;;;24.10;70.00;;;;;;4864249;54;21612;-33
2023/05/30 13:24:34;;;;;;;31.75;23.35;;;24.10;70.00;;;;;;4890264;54;21067;-35
2023/05/30 13:29:35;;;;;;;34.38;25.48;;;24.20;69.70;;;;;;4811784;54;21055;-34
2023/05/30 13:34:36;;;;;;;33.20;24.98;;;24.20;69.70;;;;;;4807883;54;21633;-33
2023/05/30 13:39:38;;;;;;;34.25;24.80;;;24.20;69.50;;;;;;4818213;54;21119;-35
2023/05/30 13:44:39;;;;;;;33.03;24.85;;;24.20;69.50;;;;;;4796588;58;21596;-35
2023/05/30 13:49:39;;;;;;;31.48;24.25;;;24.20;69.40;;;;;;4796085;58;21084;-33
2023/05/30 13:54:40;;;;;;;32.47;24.83;;;24.20;69.50;;;;;;4829730;54;21039;-34
2023/05/30 13:59:41;;;;;;;30.67;24.33;;;24.20;69.60;;;;;;4847863;54;21580;-34
2023/05/30 14:04:42;;;;;;;31.23;24.02;;;24.20;69.40;;;;;;4796376;58;21161;-34
2023/05/30 14:09:44;;;;;;;30.45;23.62;;;24.20;69.50;;;;;;4827779;54;21015;-35
2023/05/30 14:14:45;;;;;;;32.83;24.60;;;24.20;69.50;;;;;;4801788;54;21538;-35
2023/05/30 14:19:46;;;;;;;31.73;23.55;;;24.20;69.40;;;;;;4819347;54;21443;-38
2023/05/30 14:24:47;;;;;;;27.33;23.30;;;24.10;69.40;;;;;;4832549;54;21051;-35
2023/05/30 14:29:48;;;;;;;30.25;24.20;;;24.10;69.40;;;;;;4802432;54;21518;-35
2023/05/30 14:34:49;;;;;;;28.60;23.23;;;24.10;69.40;;;;;;4881099;54;21088;-35
2023/05/30 14:39:50;;;;;;;27.15;23.15;;;24.10;69.50;;;;;;4871163;54;21130;-35
2023/05/30 14:44:51;;;;;;;27.70;22.70;;;24.10;69.60;;;;;;4796330;58;21305;-35
2023/05/30 14:49:52;;;;;;;29.87;23.48;;;24.10;69.50;;;;;;4796434;58;21016;-33
2023/05/30 14:54:53;;;;;;;29.85;23.73;;;24.10;69.60;;;;;;4814846;54;21095;-37
2023/05/30 14:59:54;;;;;;;28.35;23.65;;;24.00;69.60;;;;;;4795964;58;21079;-37
2023/05/30 15:04:54;;;;;;;27.90;22.95;;;24.10;69.50;;;;;;4807891;54;21007;-35
2023/05/30 15:09:55;;;;;;;26.67;22.17;;;24.00;69.40;;;;;;4796965;58;21016;-34
2023/05/30 15:14:56;;;;;;;27.77;23.25;;;24.10;69.30;;;;;;4887955;54;21000;-37
2023/05/30 15:19:57;;;;;;;30.58;23.25;;;24.00;69.40;;;;;;4796778;54;21538;-36
2023/05/30 15:25:00;;;;;;;26.30;22.17;;;24.10;69.50;;;;;;4845321;54;21138;-35
2023/05/30 15:30:01;;;;;;;25.10;21.15;;;24.00;69.30;;;;;;4796128;58;21478;-35
2023/05/30 15:35:03;;;;;;;26.35;21.17;;;24.10;70.10;;;;;;4875663;54;21581;-36
2023/05/30 15:40:06;;;;;;;29.67;21.67;;;24.10;69.40;;;;;;4849930;54;21071;-33
2023/05/30 15:45:07;;;;;;;27.87;22.05;;;24.10;69.40;;;;;;4834835;54;21474;-34
2023/05/30 15:50:10;;;;;;;26.67;22.27;;;24.10;69.40;;;;;;4804308;54;20992;-38
2023/05/30 15:55:11;;;;;;;30.30;22.73;;;24.10;69.40;;;;;;4832150;54;21067;-37
2023/05/30 16:00:13;;;;;;;27.87;23.15;;;24.10;69.30;;;;;;4799833;54;21024;-33
2023/05/30 16:05:14;;;;;;;27.35;21.90;;;24.10;69.30;;;;;;4822762;54;21486;-36
2023/05/30 16:10:18;;;;;;;28.17;22.00;;;24.00;69.20;;;;;;4806092;54;21007;-36
2023/05/30 16:15:22;;;;;;;25.60;21.05;;;24.00;69.10;;;;;;4858485;54;21019;-36
2023/05/30 16:20:23;;;;;;;28.52;21.35;;;24.00;69.10;;;;;;4827382;54;21064;-34
2023/05/30 16:25:24;;;;;;;29.45;22.85;;;24.00;69.10;;;;;;4874072;54;21352;-34
2023/05/30 16:30:24;;;;;;;27.35;22.05;;;24.00;69.20;;;;;;4798166;54;21313;-34
2023/05/30 16:35:26;;;;;;;25.83;20.85;;;24.00;69.30;;;;;;4808668;54;21088;-33
2023/05/30 16:40:27;;;;;;;28.85;22.25;;;24.00;69.10;;;;;;4813270;54;22066;-34
2023/05/30 16:45:28;;;;;;;25.37;21.75;;;24.00;69.10;;;;;;4795992;58;21135;-35
2023/05/30 16:50:29;;;;;;;27.42;22.00;;;24.00;69.10;;;;;;4830309;54;21640;-32
2023/05/30 16:55:30;;;;;;;25.80;22.42;;;24.00;69.10;;;;;;4820645;54;21337;-33
2023/05/30 17:00:31;;;;;;;28.33;22.52;;;24.00;69.10;;;;;;4931926;54;21019;-36
2023/05/30 17:05:32;;;;;;;26.20;21.35;;;24.00;69.10;;;;;;4803074;54;21552;-34
2023/05/30 17:10:33;;;;;;;27.13;22.73;;;24.00;69.10;;;;;;4795861;58;21015;-29
2023/05/30 17:15:33;;;;;;;28.73;22.62;;;24.00;69.10;;;;;;4860443;54;21090;-34
2023/05/30 17:20:34;;;;;;;27.23;22.60;;;24.00;69.60;;;;;;4815280;54;21015;-35
2023/05/30 17:25:35;;;;;;;30.30;23.60;;;24.00;69.10;;;;;;4908260;54;21068;-34
2023/05/30 17:30:36;;;;;;;25.62;21.23;;;24.00;69.00;;;;;;4816300;54;21466;-34
2023/05/30 17:35:37;;;;;;;29.40;22.85;;;24.00;69.00;;;;;;4918887;54;21083;-33
2023/05/30 17:40:38;;;;;;;29.23;23.60;;;24.00;69.00;;;;;;4795607;58;21513;-34
2023/05/30 17:45:39;;;;;;;26.48;22.87;;;24.00;69.00;;;;;;4796417;54;21075;-34
2023/05/30 17:50:40;;;;;;;25.77;21.83;;;24.00;69.00;;;;;;4903723;54;21083;-35
2023/05/30 17:55:42;;;;;;;26.12;22.65;;;24.00;69.00;;;;;;4796106;58;21577;-33
2023/05/30 18:00:46;;;;;;;26.37;21.77;;;24.00;69.00;;;;;;4842150;54;21075;-32
2023/05/30 18:05:47;;;;;;;28.55;23.52;;;24.00;69.00;;;;;;4874053;54;21555;-34
2023/05/30 18:10:48;;;;;;;26.40;22.98;;;24.00;69.00;;;;;;4828380;54;21147;-34
2023/05/30 18:15:49;;;;;;;27.23;22.77;;;24.00;69.00;;;;;;4796530;58;21023;-32
2023/05/30 18:20:50;;;;;;;24.75;20.65;;;24.00;69.00;;;;;;4908879;54;21011;-33
2023/05/30 18:25:51;;;;;;;27.60;22.92;;;24.00;69.00;;;;;;4887313;54;21528;-35
2023/05/30 18:30:52;;;;;;;26.77;21.30;;;24.00;69.00;;;;;;4822916;54;21143;-36
2023/05/30 18:35:54;;;;;;;26.42;21.75;;;24.00;69.00;;;;;;4795746;58;21542;-34
2023/05/30 18:41:07;;;;;;;26.73;22.20;;;24.00;69.00;;;;;;4821369;54;21549;-31
2023/05/30 18:46:08;;;;;;;24.73;21.75;;;24.00;69.00;;;;;;4827331;54;21096;-33
2023/05/30 18:51:09;;;;;;;25.55;21.60;;;24.00;69.00;;;;;;4796474;58;21534;-32
2023/05/30 18:56:11;;;;;;;24.77;20.98;;;24.00;69.00;;;;;;4862698;54;21099;-34
2023/05/30 19:01:11;;;;;;;27.15;21.77;;;24.00;69.10;;;;;;4924662;54;21569;-33
2023/05/30 19:06:12;;;;;;;26.67;21.95;;;24.00;69.00;;;;;;4924798;54;20992;-33
2023/05/30 19:11:13;;;;;;;22.98;20.37;;;24.00;69.10;;;;;;4895677;54;21538;-33
2023/05/30 19:16:14;;;;;;;24.52;20.90;;;24.00;69.00;;;;;;4811546;54;21395;-37
2023/05/30 19:21:15;;;;;;;25.80;20.60;;;24.00;69.00;;;;;;4842819;54;21018;-32
2023/05/30 19:26:16;;;;;;;24.83;21.70;;;24.00;69.00;;;;;;4820665;54;21012;-37
2023/05/30 19:31:19;;;;;;;24.40;21.40;;;24.00;69.00;;;;;;4837876;54;21127;-33
2023/05/30 19:36:20;;;;;;;25.25;21.27;;;24.00;69.00;;;;;;4795734;58;22315;-34
2023/05/30 19:41:21;;;;;;;24.52;21.17;;;24.00;69.00;;;;;;4795607;58;21404;-34
2023/05/30 19:46:22;;;;;;;24.67;20.40;;;24.00;69.00;;;;;;4835383;54;21472;-37
2023/05/30 19:51:23;;;;;;;22.95;19.10;;;24.00;69.00;;;;;;4948146;54;21047;-31
2023/05/30 19:56:24;;;;;;;22.90;19.45;;;24.00;69.00;;;;;;4868295;54;21007;-34
2023/05/30 20:01:25;;;;;;;21.58;18.80;;;24.00;69.00;;;;;;4859604;54;21458;-37
2023/05/30 20:06:29;;;;;;;22.27;19.48;;;24.00;69.00;;;;;;4860039;54;21020;-33
2023/05/30 20:11:30;;;;;;;23.58;19.87;;;24.00;69.00;;;;;;4796874;58;21502;-35
2023/05/30 20:16:31;;;;;;;22.42;19.98;;;24.00;69.00;;;;;;4867849;54;21071;-35
2023/05/30 20:21:32;;;;;;;22.90;20.05;;;24.00;69.00;;;;;;4810782;54;21139;-38
2023/05/30 20:26:35;;;;;;;22.92;19.98;;;23.90;69.00;;;;;;4802158;54;21107;-35
2023/05/30 20:31:36;;;;;;;22.48;19.17;;;24.00;69.00;;;;;;4846215;54;21462;-34
2023/05/30 20:36:37;;;;;;;22.37;18.83;;;23.90;68.90;;;;;;4807390;54;21004;-37
2023/05/30 20:41:38;;;;;;;21.55;18.98;;;24.00;69.00;;;;;;4830565;54;21035;-36
2023/05/30 20:46:38;;;;;;;21.58;19.10;;;24.00;69.00;;;;;;4813073;54;20988;-37
2023/05/30 20:51:39;;;;;;;21.45;19.17;;;23.90;68.90;;;;;;4819240;54;21521;-37
2023/05/30 20:56:40;;;;;;;22.08;19.02;;;23.90;68.90;;;;;;4796645;58;21139;-36
2023/05/30 21:01:44;;;;;;;21.95;17.70;;;23.90;69.60;;;;;;4795570;58;21008;-35
2023/05/30 21:06:45;;;;;;;19.37;17.20;;;23.90;68.90;;;;;;4833418;54;21454;-32
2023/05/30 21:11:45;;;;;;;20.17;17.90;;;23.90;68.80;;;;;;4798300;54;21146;-32
2023/05/30 21:16:46;;;;;;;20.65;17.40;;;23.90;68.80;;;;;;4858670;54;20988;-36
2023/05/30 21:21:47;;;;;;;19.58;17.42;;;23.90;68.90;;;;;;4841101;54;21538;-35
2023/05/30 21:26:48;;;;;;;20.35;18.12;;;23.90;68.80;;;;;;4834426;54;20991;-34
2023/05/30 21:31:49;;;;;;;19.87;17.52;;;23.90;68.80;;;;;;4808924;54;21502;-35
2023/05/30 21:36:50;;;;;;;19.35;17.25;;;23.90;68.80;;;;;;4874384;54;21059;-34
2023/05/30 21:41:50;;;;;;;19.23;17.10;;;23.90;68.80;;;;;;4795311;58;21028;-34
2023/05/30 21:46:51;;;;;;;19.52;16.55;;;23.90;68.80;;;;;;4826781;54;21446;-35
2023/05/30 21:51:52;;;;;;;18.05;16.08;;;23.90;68.80;;;;;;4816419;54;21087;-34
2023/05/30 21:56:53;;;;;;;19.70;16.65;;;23.90;68.80;;;;;;4835718;54;21055;-33
2023/05/30 22:01:54;;;;;;;19.50;17.40;;;23.90;68.80;;;;;;4795255;58;21031;-33
2023/05/30 22:06:58;;;;;;;18.70;15.45;;;23.90;68.80;;;;;;4845150;54;21048;-33
2023/05/30 22:11:58;;;;;;;19.15;17.15;;;23.90;68.80;;;;;;4796356;58;21039;-36
2023/05/30 22:17:01;;;;;;;18.87;16.85;;;23.90;68.70;;;;;;4823224;54;21078;-34
2023/05/30 22:22:02;;;;;;;18.95;15.82;;;23.90;68.80;;;;;;4818801;54;20996;-33
2023/05/30 22:27:03;;;;;;;17.80;15.07;;;23.90;68.80;;;;;;4808022;54;21130;-35
2023/05/30 22:32:05;;;;;;;17.70;15.80;;;23.90;68.80;;;;;;4820226;54;21112;-35
2023/05/30 22:37:06;;;;;;;17.42;15.63;;;23.90;68.80;;;;;;4795589;58;21028;-35
2023/05/30 22:42:08;;;;;;;17.02;15.20;;;23.90;68.80;;;;;;4826616;54;21067;-35
2023/05/30 22:47:08;;;;;;;17.52;15.75;;;23.90;68.70;;;;;;4796287;58;21044;-38
2023/05/30 22:52:09;;;;;;;17.60;15.70;;;23.90;68.80;;;;;;4801901;54;21544;-33
2023/05/30 22:57:10;;;;;;;17.48;15.43;;;23.90;68.80;;;;;;4815710;54;21537;-35
2023/05/30 23:02:11;;;;;;;16.58;14.87;;;23.90;68.80;;;;;;4818227;54;21003;-37
2023/05/30 23:07:12;;;;;;;17.55;15.65;;;23.90;68.80;;;;;;4909406;54;21016;-37
2023/05/30 23:12:13;;;;;;;17.17;15.02;;;23.90;68.80;;;;;;4815882;54;21002;-32
2023/05/30 23:17:13;;;;;;;17.30;15.38;;;24.00;68.80;;;;;;4819481;54;21095;-35
2023/05/30 23:22:14;;;;;;;17.02;15.18;;;23.90;68.80;;;;;;4812937;54;21051;-36
2023/05/30 23:27:17;;;;;;;17.08;14.93;;;23.90;68.80;;;;;;4829269;54;21066;-36
2023/05/30 23:32:17;;;;;;;17.00;15.20;;;23.90;68.70;;;;;;4835536;54;21012;-36
2023/05/30 23:37:18;;;;;;;15.63;13.93;;;23.90;68.70;;;;;;4802147;54;21182;-35
2023/05/30 23:42:19;;;;;;;15.93;14.27;;;23.90;68.70;;;;;;4795469;58;21012;-33
2023/05/30 23:47:20;;;;;;;15.50;13.88;;;23.90;68.70;;;;;;4826883;54;21042;-32
2023/05/30 23:52:21;;;;;;;15.23;13.60;;;23.90;68.80;;;;;;4796497;58;21059;-34
2023/05/30 23:57:22;;;;;;;15.23;13.73;;;23.90;68.70;;;;;;4827913;54;21115;-34
